createdAt,value
2019-04-21T00:05:20.000Z,6.27
2019-04-21T00:12:12.414Z,6.10
2019-04-21T00:18:51.902Z,6.87
2019-04-21T00:25:42.688Z,6.30
2019-04-21T00:32:29.226Z,6.90
2019-04-21T00:39:36.397Z,6.50
2019-04-21T00:46:03.486Z,7.03
2019-04-21T00:53:08.301Z,7.23
2019-04-21T00:59:54.363Z,7.07
2019-04-21T01:06:43.125Z,6.60
2019-04-21T01:13:27.846Z,6.87
2019-04-21T01:20:01.415Z,7.90
2019-04-21T01:26:47.030Z,7.87
2019-04-21T01:33:48.634Z,7.57
2019-04-21T01:40:33.773Z,7.80
2019-04-21T01:47:13.080Z,8.85
2019-04-21T01:54:09.386Z,8.00
2019-04-21T02:00:51.795Z,9.73
2019-04-21T02:08:27.477Z,7.83
2019-04-21T02:15:37.962Z,8.20
2019-04-21T02:22:00.891Z,8.40
2019-04-21T02:28:57.422Z,7.70
2019-04-21T02:42:38.085Z,7.83
2019-04-21T02:49:50.769Z,7.93
2019-04-21T02:56:11.134Z,7.37
2019-04-21T03:03:03.899Z,8.07
2019-04-21T03:16:32.985Z,7.77
2019-04-21T03:23:27.818Z,7.73
2019-04-21T03:30:26.279Z,7.07
2019-04-21T03:57:32.431Z,7.63
2019-04-21T04:04:31.921Z,8.93
2019-04-21T04:11:12.050Z,7.63
2019-04-21T04:17:46.803Z,9.00
2019-04-21T04:38:24.214Z,8.00
2019-04-21T04:45:14.959Z,8.07
2019-04-21T04:52:14.206Z,7.27
2019-04-21T04:58:59.575Z,8.13
2019-04-21T05:05:30.164Z,7.73
2019-04-21T05:12:12.026Z,8.10
2019-04-21T05:19:06.528Z,8.60
2019-04-21T05:25:30.759Z,7.40
2019-04-21T05:32:26.830Z,7.45
2019-04-21T05:46:14.280Z,7.23
2019-04-21T05:52:50.385Z,7.13
2019-04-21T05:59:43.565Z,7.13
2019-04-21T06:06:34.089Z,6.37
2019-04-21T06:13:20.667Z,6.87
2019-04-21T06:20:05.639Z,6.65
2019-04-21T06:27:00.362Z,6.80
2019-04-21T06:33:43.173Z,7.58
2019-04-21T06:40:27.753Z,7.40
2019-04-21T06:47:17.647Z,7.55
2019-04-21T07:00:41.117Z,6.55
2019-04-21T07:21:08.256Z,6.85
2019-04-21T07:27:52.055Z,6.60
2019-04-21T07:34:41.361Z,6.60
2019-04-21T07:41:18.424Z,5.87
2019-04-21T07:48:12.695Z,5.67
2019-04-21T07:55:15.353Z,5.67
2019-04-21T08:01:53.237Z,5.42
2019-04-21T08:08:33.762Z,4.03
2019-04-21T08:22:11.499Z,4.37
2019-04-21T08:42:25.393Z,5.17
2019-04-21T08:49:13.410Z,3.95
2019-04-21T08:56:10.573Z,4.67
2019-04-21T09:03:02.656Z,4.83
2019-04-21T09:09:57.860Z,4.60
2019-04-21T09:16:24.966Z,4.20
2019-04-21T09:23:19.508Z,4.35
2019-04-21T09:29:53.995Z,3.50
2019-04-21T09:36:41.278Z,3.77
2019-04-21T09:43:30.806Z,3.62
2019-04-21T09:50:09.593Z,3.55
2019-04-21T09:56:59.978Z,3.20
2019-04-21T10:03:47.381Z,3.12
2019-04-21T10:10:29.628Z,3.08
2019-04-21T10:17:22.075Z,3.10
2019-04-21T10:24:08.153Z,2.87
2019-04-21T10:30:53.434Z,3.00
2019-04-21T10:37:50.861Z,3.10
2019-04-21T10:44:25.327Z,3.12
2019-04-21T10:51:10.747Z,2.80
2019-04-21T10:58:12.219Z,3.12
2019-04-21T11:04:58.500Z,3.05
2019-04-21T11:11:46.860Z,2.42
2019-04-21T11:18:31.779Z,2.65
2019-04-21T11:25:17.867Z,3.15
2019-04-21T11:32:05.279Z,2.87
2019-04-21T11:39:06.092Z,2.62
2019-04-21T11:45:42.114Z,3.20
2019-04-21T11:52:27.365Z,2.80
2019-04-21T11:59:12.597Z,2.72
2019-04-21T12:05:57.823Z,3.13
2019-04-21T12:12:43.354Z,2.87
2019-04-21T12:19:28.512Z,2.75
2019-04-21T12:26:15.944Z,2.85
2019-04-21T12:33:04.304Z,2.60
2019-04-21T12:39:50.576Z,3.12
2019-04-21T12:46:38.089Z,2.80
2019-04-21T12:53:23.546Z,3.15
2019-04-21T13:00:11.108Z,3.85
2019-04-21T13:06:57.324Z,3.10
2019-04-21T13:13:45.960Z,3.47
2019-04-21T13:20:31.356Z,3.10
2019-04-21T13:27:17.733Z,3.30
2019-04-21T13:34:04.179Z,3.25
2019-04-21T13:41:17.522Z,3.15
2019-04-21T13:47:50.410Z,3.33
2019-04-21T13:54:35.807Z,3.37
2019-04-21T14:01:23.406Z,2.60
2019-04-21T14:08:09.277Z,2.60
2019-04-21T14:14:54.450Z,2.50
2019-04-21T14:21:39.411Z,3.25
2019-04-21T14:28:24.285Z,3.02
2019-04-21T14:35:10.931Z,3.30
2019-04-21T14:41:56.513Z,2.77
2019-04-21T14:48:59.687Z,3.50
2019-04-21T14:55:45.914Z,3.10
2019-04-21T15:02:31.886Z,3.05
2019-04-21T15:09:16.923Z,3.37
2019-04-21T15:16:02.738Z,2.72
2019-04-21T15:22:48.292Z,3.17
2019-04-21T15:29:33.278Z,2.95
2019-04-21T15:36:18.715Z,3.00
2019-04-21T15:43:04.386Z,3.30
2019-04-21T15:50:02.929Z,3.13
2019-04-21T15:56:44.858Z,3.10
2019-04-21T16:03:31.487Z,3.27
2019-04-21T16:10:29.928Z,3.08
2019-04-21T16:17:03.417Z,3.12
2019-04-21T16:23:48.648Z,2.98
2019-04-21T16:30:34.122Z,3.20
2019-04-21T16:37:19.458Z,3.00
2019-04-21T16:44:05.102Z,3.00
2019-04-21T16:50:50.074Z,3.05
2019-04-21T16:57:39.820Z,2.98
2019-04-21T17:04:26.377Z,2.90
2019-04-21T17:11:18.788Z,2.95
2019-04-21T17:18:16.515Z,3.02
2019-04-21T17:24:44.711Z,2.67
2019-04-21T17:31:30.680Z,2.33
2019-04-21T17:38:16.379Z,2.77
2019-04-21T17:45:01.416Z,2.92
2019-04-21T17:52:09.836Z,3.12
2019-04-21T17:59:16.404Z,2.90
2019-04-21T18:05:56.001Z,3.05
2019-04-21T18:12:41.386Z,3.12
2019-04-21T18:19:15.139Z,3.27
2019-04-21T18:26:07.637Z,3.90
2019-04-21T18:32:48.188Z,4.25
2019-04-21T18:39:49.815Z,3.40
2019-04-21T18:46:52.526Z,3.40
2019-04-21T18:53:41.159Z,3.17
2019-04-21T19:00:17.954Z,2.90
2019-04-21T19:07:12.770Z,3.10
2019-04-21T19:14:20.872Z,3.20
2019-04-21T19:20:55.373Z,3.60
2019-04-21T19:27:43.708Z,2.90
2019-04-21T19:34:19.389Z,4.60
2019-04-21T19:41:15.701Z,2.93
2019-04-21T19:48:08.118Z,4.20
2019-04-21T19:54:37.900Z,3.80
2019-04-21T20:01:19.663Z,4.00
2019-04-21T20:08:22.189Z,3.33
2019-04-21T20:15:20.431Z,4.17
2019-04-21T20:21:38.912Z,6.00
2019-04-21T20:28:36.995Z,10.50
2019-04-21T20:35:38.452Z,14.73
2019-04-21T20:42:12.366Z,8.83
2019-04-21T20:49:00.058Z,8.20
2019-04-21T20:55:44.248Z,7.50
2019-04-21T21:02:37.167Z,8.20
2019-04-21T21:09:19.896Z,7.70
2019-04-21T21:16:17.956Z,6.97
2019-04-21T21:22:55.349Z,6.23
2019-04-21T21:29:45.639Z,6.37
2019-04-21T21:36:35.306Z,6.03
2019-04-21T21:43:01.514Z,6.10
2019-04-21T21:50:01.257Z,5.57
2019-04-21T21:56:34.329Z,5.73
2019-04-21T22:03:27.469Z,6.93
2019-04-21T22:10:10.437Z,22.83
2019-04-21T22:17:17.524Z,5.22
2019-04-21T22:23:54.971Z,5.57
2019-04-21T22:30:38.174Z,4.40
2019-04-21T22:37:36.789Z,5.23
2019-04-21T22:44:06.968Z,5.17
2019-04-21T22:50:53.620Z,5.07
2019-04-21T22:57:43.435Z,5.60
2019-04-21T23:04:36.840Z,5.37
2019-04-21T23:11:14.680Z,5.07
2019-04-21T23:18:22.138Z,6.60
2019-04-21T23:25:09.425Z,6.10
2019-04-21T23:31:57.746Z,5.70
2019-04-21T23:38:32.060Z,5.40
2019-04-21T23:45:10.606Z,6.90
2019-04-21T23:52:01.474Z,6.47
2019-04-21T23:58:44.873Z,5.50
